CheckWX is a tool to help pilots better visualize weather data.  It is not intended as a substitute for an official pre-flight weather briefing.

20:03:32 UTC

EGOM METAR
RAF Spadeadam Airport
Spadeadam, United Kingdom
Current

1 hour ago

EGOM 261850Z AUTO 27022KT 9999 BKN041/// 11/06 Q1006
Observed
May-26 @ 18:50 UTC
Wind
  • 270° at 22 KTS
Visibility
10,000+ meters
Flight Rules
VFR
Cloud Levels
  • Broken at 4,100' AGL
Temperature
11°C / 52°F
Dewpoint
C / 43°F
Humidity
72%
Altimeter
29.7" Hg
Pressure
1005.92 hPa
Previous

2 hours ago

EGOM 261750Z AUTO 27026KT 9999 BKN042/// 11/06 Q1006
Observed
May-26 @ 17:50 UTC
Wind
  • 270° at 26 KTS
Visibility
10,000+ meters
Flight Rules
VFR
Cloud Levels
  • Broken at 4,200' AGL
Temperature
11°C / 52°F
Dewpoint
C / 43°F
Humidity
72%
Altimeter
29.7" Hg
Pressure
1005.92 hPa
Previous

3 hours ago

EGOM 261650Z AUTO 27023G34KT 9999 BKN040/// 12/06 Q1006
Observed
May-26 @ 16:50 UTC
Wind
  • 270° at 23 KTS
  • Gusting to 34 KTS
Visibility
10,000+ meters
Flight Rules
VFR
Cloud Levels
  • Broken at 4,000' AGL
Temperature
12°C / 54°F
Dewpoint
C / 43°F
Humidity
67%
Altimeter
29.7" Hg
Pressure
1005.92 hPa